Sevier River / Vermillion Canal




Date 2017 Battery Voltage (V) 2017 Canal Stage above Flume (ft) 2017 Canal Stage below Flume (ft) 2017 Canal Flow (cfs) 2017 Canal Gate Height (%) 2017 River Stage at Dam (ft) 2017 River Flow at Dam (cfs) 2017 Pond Stage at Gate (ft) 2017 Canal Stage Offset (ft) 2017 River Stage below Dam (ft) 2017 River Flow below Dam (cfs) 2017 Submergence 2017 Mossing 2017 CFS Set (cfs) 2017 Gate Set (%) 2017 Auto CFS 2017 Auto Gate 2017 Gate Warning 2017 Settle Count 2017 Gate Up Total 2017 Gate Down Total
12/01/2017 13.02 0.40 -0.46 7.4 0.38 37 0.48 34.76
12/02/2017 13.00 0.40 -0.46 7.4 0.75 103 0.96 97.30
12/03/2017 12.92 0.40 -0.46 7.4 0.85 122 0.96 97.00
12/04/2017 13.00 0.40 -0.46 7.4 0.85 123 0.99 103.40
12/05/2017 13.07 0.40 -0.46 7.4 0.85 123 1.01 106.80
12/06/2017 13.08 0.40 -0.46 7.2 0.86 125 0.98 101.70
12/07/2017 13.08 0.39 -0.46 7.0 0.89 131 1.01 106.90
12/08/2017 13.05 0.30 -0.46 4.9 0.42 102 1.14 129.50
12/09/2017 13.05 0.14 -0.46 1.4 -1.68 0 1.37 168.70
12/10/2017 13.05 0.09 -0.46 0.7 -2.76 0 1.24 145.70
12/11/2017 13.03 0.11 -0.46 1.0 -2.33 0 1.01 111.20
12/12/2017 13.01 0.05 -0.46 0.3 -2.52 0 1.30 159.70
12/13/2017 13.00 0.03 -0.46 0.2 -2.33 0 1.22 149.60
12/14/2017 13.05 0.03 -0.46 0.2 -3.05 0 1.08 117.80
12/15/2017 13.06 0.09 -0.46 0.6 -3.05 0 1.21 139.40
12/16/2017 12.96 0.09 -0.46 0.6 -3.00 0 1.24 143.20
12/17/2017 12.79 0.09 -0.46 0.6 -2.97 0 1.25 144.90
12/18/2017 13.00 0.09 -0.46 0.6 -2.94 0 1.24 143.20
12/19/2017 13.03 0.09 -0.46 0.6 -2.88 0 1.23 143.50
12/20/2017 12.97 0.09 -0.47 0.6 -2.88 0 1.25 146.80
12/21/2017 12.72 0.09 -0.47 0.6 -2.90 0 1.28 150.60
12/22/2017 13.02 0.09 -0.47 0.6 -2.88 0 1.17 134.20
12/23/2017 12.80 0.10 -0.47 0.8 -2.71 0 1.24 146.60
12/24/2017 12.81 0.12 -0.47 1.0 -2.80 0 1.37 168.10
12/25/2017 12.98 0.10 -0.47 0.8 -2.88 0 1.34 160.60
12/26/2017 13.06 0.10 -0.47 0.8 -2.88 0 1.32 158.60
12/27/2017 13.04 0.10 -0.47 0.8 -2.90 0 1.27 150.20
12/28/2017 13.03 0.10 -0.47 0.8 -2.92 0 1.25 146.00
12/29/2017 13.01 0.10 -0.47 0.7 -2.90 0 1.24 143.60
12/30/2017 12.93 0.09 -0.47 0.7 -2.91 0 1.22 140.80
12/31/2017 13.01 0.09 -0.47 0.7 -2.92 0 1.19 136.00
Average 2.3 28 133.11 0.00
Maximum 7.4 131 168.70
Minimum 0.2 0 34.76
Total Volume (AF) 142.4 1,717 8,182.57 0.00